LFPG 172000Z 15008KT 7000 SCT008 BKN230 06/05 Q1025 NOSIG

ElémentsDécodage
LFPG Station météo située sur l'aérodrome de PARIS Charles-de-Gaulle
172000Z émis le 17 du mois à 20h00 UTC
15008KT vent du 150°, 08 noeuds
7000 visibilité horizontale de 7000 mètres
SCT008 nuages épars (3/8 à 4/8) à 800 pieds
BKN230 nuages morcelés (5/8 à 7/8) à 23000 pieds
06/05 température 06°C, point de rosée 05°C
 soit une humidité relative de 93%
Q1025 la pression au niveau de la mer (QNH) est de 1025 hPa
NOSIG Pas de changement significatif prévu au cours des deux heures suivant l'heure de l'observation